createdAt,value
2017-11-04T00:01:58.594Z,30.23
2017-11-04T00:04:26.254Z,30.20
2017-11-04T00:06:53.907Z,35.67
2017-11-04T00:09:21.619Z,40.30
2017-11-04T00:11:49.326Z,34.40
2017-11-04T00:14:17.076Z,32.57
2017-11-04T00:16:44.775Z,34.30
2017-11-04T00:19:12.198Z,28.70
2017-11-04T00:21:39.525Z,34.30
2017-11-04T00:24:06.857Z,39.43
2017-11-04T00:26:34.162Z,33.80
2017-11-04T00:29:01.489Z,36.57
2017-11-04T00:31:29.804Z,32.10
2017-11-04T00:33:57.139Z,31.87
2017-11-04T00:36:24.419Z,30.90
2017-11-04T00:38:51.714Z,36.27
2017-11-04T00:41:19.040Z,33.77
2017-11-04T00:43:46.344Z,30.53
2017-11-04T00:46:13.646Z,39.00
2017-11-04T00:48:40.979Z,36.23
2017-11-04T00:51:08.526Z,36.97
2017-11-04T00:53:35.836Z,34.73
2017-11-04T00:56:03.184Z,37.70
2017-11-04T00:58:30.499Z,35.73
2017-11-04T01:00:57.782Z,35.23
2017-11-04T01:03:25.086Z,31.93
2017-11-04T01:05:52.672Z,31.37
2017-11-04T01:08:20.327Z,35.60
2017-11-04T01:10:47.794Z,32.90
2017-11-04T01:13:15.259Z,30.33
2017-11-04T01:15:42.543Z,37.63
2017-11-04T01:18:09.875Z,31.27
2017-11-04T01:20:37.178Z,37.00
2017-11-04T01:23:04.481Z,49.30
2017-11-04T01:25:31.841Z,34.67
2017-11-04T01:27:59.218Z,34.87
2017-11-04T01:30:26.523Z,32.10
2017-11-04T01:32:53.828Z,35.40
2017-11-04T01:35:21.147Z,40.03
2017-11-04T01:37:48.484Z,37.87
2017-11-04T01:40:15.803Z,36.10
2017-11-04T01:42:43.099Z,36.70
2017-11-04T01:45:10.402Z,32.20
2017-11-04T01:47:38.075Z,32.77
2017-11-04T01:50:05.922Z,33.30
2017-11-04T01:52:33.667Z,31.40
2017-11-04T01:55:01.388Z,31.47
2017-11-04T01:57:29.194Z,31.37
2017-11-04T01:59:56.949Z,33.20
2017-11-04T02:02:24.671Z,35.90
2017-11-04T02:04:52.646Z,33.90
2017-11-04T02:07:20.400Z,30.60
2017-11-04T02:09:48.179Z,29.60
2017-11-04T02:12:15.996Z,33.07
2017-11-04T02:14:43.799Z,37.77
2017-11-04T02:17:11.536Z,28.10
2017-11-04T02:19:39.350Z,30.90
2017-11-04T02:22:07.433Z,27.30
2017-11-04T02:24:35.203Z,31.53
2017-11-04T02:27:02.910Z,31.90
2017-11-04T02:29:30.635Z,29.80
2017-11-04T02:31:59.168Z,35.57
2017-11-04T02:34:27.035Z,40.70
2017-11-04T02:36:54.779Z,29.20
2017-11-04T02:39:22.476Z,39.90
2017-11-04T02:41:50.235Z,32.97
2017-11-04T02:44:17.988Z,35.20
2017-11-04T02:46:45.695Z,35.53
2017-11-04T02:49:13.460Z,33.87
2017-11-04T02:51:41.281Z,30.47
2017-11-04T02:54:08.977Z,37.67
2017-11-04T02:56:36.728Z,33.93
2017-11-04T02:59:04.400Z,34.60
2017-11-04T03:01:32.421Z,35.10
2017-11-04T03:03:59.793Z,36.90
2017-11-04T03:06:27.103Z,30.57
2017-11-04T03:08:54.420Z,29.73
2017-11-04T03:11:21.697Z,31.13
2017-11-04T03:13:49.000Z,27.20
2017-11-04T03:16:16.308Z,31.90
2017-11-04T03:18:43.606Z,29.37
2017-11-04T03:21:10.929Z,36.27
2017-11-04T03:23:38.284Z,32.20
2017-11-04T03:26:05.562Z,42.93
2017-11-04T03:28:32.893Z,29.67
2017-11-04T03:31:00.283Z,33.87
2017-11-04T03:33:27.581Z,48.40
2017-11-04T03:35:54.896Z,41.73
2017-11-04T03:38:22.184Z,49.53
2017-11-04T03:40:49.512Z,45.17
2017-11-04T03:43:16.838Z,44.23
2017-11-04T03:45:44.132Z,48.73
2017-11-04T03:48:11.413Z,47.87
2017-11-04T03:50:38.768Z,47.27
2017-11-04T03:53:06.057Z,48.27
2017-11-04T03:55:33.346Z,49.90
2017-11-04T03:58:00.659Z,46.00
2017-11-04T04:00:27.955Z,48.90
2017-11-04T04:02:55.317Z,52.47
2017-11-04T04:05:22.641Z,53.70
2017-11-04T04:07:49.955Z,46.60
2017-11-04T04:10:17.232Z,50.53
2017-11-04T04:12:44.559Z,47.13
2017-11-04T04:15:11.862Z,51.87
2017-11-04T04:17:39.153Z,46.37
2017-11-04T04:20:06.445Z,50.17
2017-11-04T04:22:33.789Z,51.77
2017-11-04T04:25:01.079Z,48.80
2017-11-04T04:27:28.363Z,46.83
2017-11-04T04:29:55.683Z,49.97
2017-11-04T04:32:22.993Z,51.33
2017-11-04T04:34:50.294Z,48.50
2017-11-04T04:37:17.591Z,47.10
2017-11-04T04:39:44.894Z,49.63
2017-11-04T04:42:12.204Z,48.77
2017-11-04T04:44:39.530Z,50.70
2017-11-04T04:47:06.840Z,49.67
2017-11-04T04:49:34.136Z,47.47
2017-11-04T04:52:01.478Z,49.87
2017-11-04T04:54:28.782Z,50.90
2017-11-04T04:56:56.075Z,49.30
2017-11-04T04:59:23.388Z,53.57
2017-11-04T05:01:50.694Z,47.03
2017-11-04T05:04:17.998Z,49.63
2017-11-04T05:06:45.295Z,49.03
2017-11-04T05:09:12.612Z,49.47
2017-11-04T05:11:40.776Z,51.37
2017-11-04T05:14:08.091Z,50.03
2017-11-04T05:16:35.382Z,51.63
2017-11-04T05:19:02.707Z,49.80
2017-11-04T05:21:29.995Z,50.20
2017-11-04T05:23:57.304Z,48.30
2017-11-04T05:26:24.576Z,49.50
2017-11-04T05:28:51.901Z,49.03
2017-11-04T05:31:19.178Z,44.77
2017-11-04T05:33:46.475Z,48.13
2017-11-04T05:36:13.810Z,48.37
2017-11-04T05:38:41.100Z,46.10
2017-11-04T05:41:08.419Z,45.73
2017-11-04T05:43:35.710Z,43.47
2017-11-04T05:46:03.013Z,41.90
2017-11-04T05:48:30.317Z,44.37
2017-11-04T05:50:57.635Z,42.70
2017-11-04T05:53:24.915Z,44.30
2017-11-04T05:55:54.203Z,44.80
2017-11-04T05:58:21.500Z,44.60
2017-11-04T06:00:48.803Z,45.13
2017-11-04T06:03:16.093Z,46.53
2017-11-04T06:05:43.397Z,46.67
2017-11-04T06:08:10.683Z,47.50
2017-11-04T06:10:38.015Z,47.83
2017-11-04T06:13:05.332Z,49.40
2017-11-04T06:15:32.743Z,45.53
2017-11-04T06:18:00.033Z,46.20
2017-11-04T06:20:27.351Z,49.63
2017-11-04T06:22:54.646Z,47.00
2017-11-04T06:25:21.974Z,46.77
2017-11-04T06:27:49.267Z,50.47
2017-11-04T06:30:16.558Z,46.27
2017-11-04T06:32:43.867Z,49.60
2017-11-04T06:35:11.149Z,45.67
2017-11-04T06:37:38.480Z,51.23
2017-11-04T06:40:05.786Z,44.40
2017-11-04T06:42:33.107Z,45.10
2017-11-04T06:45:00.406Z,44.77
2017-11-04T06:47:27.720Z,44.13
2017-11-04T06:49:54.992Z,43.53
2017-11-04T06:52:22.311Z,42.57
2017-11-04T06:54:49.592Z,42.80
2017-11-04T06:57:16.902Z,42.10
2017-11-04T08:21:41.186Z,39.33
2017-11-04T08:24:08.490Z,40.47
2017-11-04T08:26:35.807Z,39.97
2017-11-04T08:29:03.109Z,39.17
2017-11-04T08:31:30.420Z,37.73
2017-11-04T08:33:57.737Z,37.87
2017-11-04T08:36:25.025Z,38.17
2017-11-04T08:38:52.336Z,41.97
2017-11-04T08:41:19.642Z,37.47
2017-11-04T08:43:46.976Z,38.00
2017-11-04T08:46:14.281Z,39.87
2017-11-04T08:48:41.549Z,39.07
2017-11-04T08:51:08.859Z,38.43
2017-11-04T08:53:36.136Z,38.67
2017-11-04T08:56:03.459Z,39.50
2017-11-04T08:58:30.787Z,36.77
2017-11-04T09:00:58.123Z,41.17
2017-11-04T09:03:25.422Z,39.97
2017-11-04T09:05:52.710Z,35.03
2017-11-04T09:08:20.014Z,38.13
2017-11-04T09:10:47.303Z,38.00
2017-11-04T09:13:14.618Z,36.20
2017-11-04T09:15:41.933Z,36.67
2017-11-04T09:18:09.242Z,39.07
2017-11-04T09:20:36.522Z,41.17
2017-11-04T09:23:03.826Z,37.43
2017-11-04T09:25:31.127Z,40.40
2017-11-04T09:28:01.078Z,39.50
2017-11-04T09:30:28.458Z,39.77
2017-11-04T09:32:55.793Z,38.80
2017-11-04T09:35:23.100Z,40.07
2017-11-04T09:37:50.374Z,38.40
2017-11-04T09:40:17.693Z,36.53
2017-11-04T09:42:44.980Z,38.37
2017-11-04T09:45:12.304Z,36.13
2017-11-04T09:47:39.588Z,35.80
2017-11-04T09:50:07.235Z,37.13
2017-11-04T09:52:34.721Z,39.60
2017-11-04T09:55:02.030Z,37.07
2017-11-04T09:57:29.325Z,36.83
2017-11-04T09:59:56.623Z,36.63
2017-11-04T10:02:23.901Z,37.00
2017-11-04T10:04:51.194Z,35.53
2017-11-04T10:07:18.523Z,38.87
2017-11-04T10:09:45.823Z,36.43
2017-11-04T10:12:13.118Z,35.00
2017-11-04T10:14:40.435Z,34.27
2017-11-04T10:17:07.695Z,35.50
2017-11-04T10:19:35.009Z,36.97
2017-11-04T10:22:02.311Z,34.07
2017-11-04T10:24:29.759Z,34.37
2017-11-04T10:26:57.079Z,33.27
2017-11-04T10:29:24.359Z,33.90
2017-11-04T10:31:51.938Z,32.73
2017-11-04T10:34:19.240Z,32.67
2017-11-04T10:36:46.515Z,35.10
2017-11-04T10:39:13.798Z,35.90
2017-11-04T10:41:41.109Z,35.20
2017-11-04T10:44:08.405Z,36.40
2017-11-04T10:46:35.696Z,33.90
2017-11-04T10:49:02.960Z,37.47
2017-11-04T10:51:30.262Z,36.27
2017-11-04T10:53:57.559Z,35.20
2017-11-04T10:56:24.866Z,35.03
2017-11-04T10:58:52.180Z,37.50
2017-11-04T11:01:19.446Z,40.33
2017-11-04T11:03:46.746Z,37.10
2017-11-04T11:06:14.050Z,37.63
2017-11-04T11:08:41.342Z,38.73
2017-11-04T11:11:08.610Z,39.30
2017-11-04T11:13:35.920Z,38.20
2017-11-04T11:16:03.196Z,39.23
2017-11-04T11:18:30.470Z,42.13
2017-11-04T11:20:57.795Z,40.83
2017-11-04T11:23:25.067Z,40.50
2017-11-04T11:25:52.335Z,39.27
2017-11-04T11:28:19.639Z,39.93
2017-11-04T11:30:46.947Z,40.13
2017-11-04T11:33:14.222Z,39.83
2017-11-04T11:35:41.491Z,40.20
2017-11-04T11:38:08.789Z,39.27
2017-11-04T11:40:36.090Z,40.67
2017-11-04T11:43:03.366Z,40.57
2017-11-04T11:45:30.668Z,39.20
2017-11-04T11:47:57.958Z,40.07
2017-11-04T11:50:25.227Z,40.80
2017-11-04T11:52:52.531Z,43.07
2017-11-04T11:55:19.811Z,40.00
2017-11-04T11:57:47.177Z,40.40
2017-11-04T12:00:14.453Z,43.17
2017-11-04T12:02:41.775Z,43.17
2017-11-04T12:05:09.052Z,41.13
2017-11-04T12:07:36.324Z,40.03
2017-11-04T12:10:03.643Z,41.37
2017-11-04T12:12:30.910Z,42.70
2017-11-04T12:14:58.181Z,43.07
2017-11-04T12:17:25.482Z,40.87
2017-11-04T12:19:52.754Z,42.77
2017-11-04T12:22:20.136Z,41.43
2017-11-04T12:24:47.479Z,41.50
2017-11-04T12:27:14.793Z,43.93
2017-11-04T12:29:42.062Z,42.87
2017-11-04T12:32:09.328Z,44.33
2017-11-04T12:34:36.631Z,42.97
2017-11-04T12:37:03.904Z,40.57
2017-11-04T12:39:31.186Z,44.53
2017-11-04T12:41:58.548Z,43.67
2017-11-04T12:44:25.836Z,41.77
2017-11-04T12:46:53.152Z,44.03
2017-11-04T12:49:20.434Z,38.70
2017-11-04T12:51:47.698Z,41.00
2017-11-04T12:54:14.996Z,41.60
2017-11-04T12:56:42.268Z,41.27
2017-11-04T12:59:09.563Z,43.50
2017-11-04T13:01:36.835Z,41.13
2017-11-04T13:04:04.135Z,41.07
2017-11-04T13:06:31.439Z,40.43
2017-11-04T13:08:58.749Z,40.17
2017-11-04T13:11:26.134Z,39.60
2017-11-04T13:13:53.439Z,40.23
2017-11-04T13:16:20.745Z,40.13
2017-11-04T13:18:48.015Z,42.70
2017-11-04T13:21:15.320Z,42.20
2017-11-04T13:23:42.624Z,41.50
2017-11-04T13:26:09.904Z,39.03
2017-11-04T13:28:37.290Z,40.20
2017-11-04T13:31:04.560Z,39.90
2017-11-04T13:33:31.899Z,40.57
2017-11-04T13:35:59.196Z,36.80
2017-11-04T13:38:26.466Z,41.20
2017-11-04T13:40:53.789Z,40.83
2017-11-04T13:43:21.059Z,44.07
2017-11-04T13:45:48.364Z,39.10
2017-11-04T13:48:15.671Z,41.23
2017-11-04T13:50:43.080Z,37.80
2017-11-04T13:53:10.349Z,39.70
2017-11-04T13:55:37.620Z,41.80
2017-11-04T13:58:04.914Z,39.93
2017-11-04T14:00:32.183Z,38.33
2017-11-04T14:02:59.480Z,41.97
2017-11-04T14:05:26.755Z,39.87
2017-11-04T14:07:54.053Z,41.63
2017-11-04T14:10:21.323Z,37.97
2017-11-04T14:12:48.633Z,37.57
2017-11-04T14:15:15.910Z,38.10
2017-11-04T14:17:43.189Z,38.20
2017-11-04T14:20:10.482Z,39.63
2017-11-04T14:22:37.788Z,38.07
2017-11-04T14:25:05.108Z,39.17
2017-11-04T14:27:32.378Z,39.97
2017-11-04T14:29:59.743Z,39.93
2017-11-04T14:32:27.047Z,38.30
2017-11-04T14:34:54.344Z,39.50
2017-11-04T14:37:21.711Z,38.37
2017-11-04T14:39:48.990Z,38.33
2017-11-04T14:42:16.253Z,39.27
2017-11-04T14:44:43.570Z,37.40
2017-11-04T14:47:10.844Z,38.03
2017-11-04T14:49:38.116Z,37.50
2017-11-04T14:52:05.419Z,39.63
2017-11-04T14:54:32.690Z,37.20
2017-11-04T14:57:00.091Z,37.70
2017-11-04T14:59:27.403Z,38.03
2017-11-04T15:01:54.683Z,38.87
2017-11-04T15:04:22.003Z,37.73
2017-11-04T15:06:49.280Z,37.77
2017-11-04T15:09:16.552Z,35.80
2017-11-04T15:11:43.852Z,37.97
2017-11-04T15:14:11.123Z,39.67
2017-11-04T15:16:38.432Z,40.77
2017-11-04T15:19:05.705Z,40.13
2017-11-04T15:21:32.977Z,41.60
2017-11-04T15:24:00.300Z,39.80
2017-11-04T15:26:27.567Z,41.50
2017-11-04T15:28:54.838Z,37.03
2017-11-04T15:31:22.135Z,41.93
2017-11-04T15:33:49.437Z,40.13
2017-11-04T15:36:16.735Z,42.30
2017-11-04T15:38:44.060Z,39.50
2017-11-04T15:41:11.359Z,39.10
2017-11-04T15:43:38.642Z,41.30
2017-11-04T15:46:05.936Z,40.60
2017-11-04T15:48:33.245Z,42.67
2017-11-04T15:51:00.510Z,41.37
2017-11-04T15:53:27.820Z,42.87
2017-11-04T15:55:55.090Z,43.97
2017-11-04T15:58:22.367Z,43.87
2017-11-04T16:00:49.663Z,44.23
2017-11-04T16:03:16.966Z,44.00
2017-11-04T16:05:44.263Z,41.50
2017-11-04T16:08:11.562Z,43.03
2017-11-04T16:10:38.861Z,42.37
2017-11-04T16:13:06.125Z,42.80
2017-11-04T16:15:33.431Z,41.57
2017-11-04T16:18:00.834Z,45.07
2017-11-04T16:20:28.111Z,46.33
2017-11-04T16:22:55.775Z,41.53
2017-11-04T16:25:23.118Z,42.13
2017-11-04T16:27:50.420Z,42.47
2017-11-04T16:30:17.725Z,42.77
2017-11-04T16:32:45.011Z,39.97
2017-11-04T16:35:12.291Z,45.20
2017-11-04T16:37:39.588Z,44.20
2017-11-04T16:40:06.868Z,46.27
2017-11-04T16:42:34.172Z,46.50
2017-11-04T16:45:02.133Z,43.70
2017-11-04T16:47:29.414Z,45.37
2017-11-04T16:49:56.718Z,44.90
2017-11-04T16:52:24.027Z,44.17
2017-11-04T16:54:51.375Z,54.00
2017-11-04T16:57:18.674Z,48.67
2017-11-04T16:59:45.964Z,48.40
2017-11-04T17:02:13.232Z,46.40
2017-11-04T17:04:40.535Z,49.23
2017-11-04T17:07:07.804Z,45.57
2017-11-04T17:09:35.375Z,48.77
2017-11-04T17:12:02.679Z,48.80
2017-11-04T17:14:29.951Z,47.97
2017-11-04T17:16:57.284Z,47.37
2017-11-04T17:19:24.582Z,46.13
2017-11-04T17:21:51.846Z,45.03
2017-11-04T17:24:19.160Z,49.03
2017-11-04T17:26:46.434Z,43.70
2017-11-04T17:29:13.739Z,47.40
2017-11-04T17:31:41.060Z,47.77
2017-11-04T17:34:08.325Z,49.90
2017-11-04T17:36:35.736Z,51.83
2017-11-04T17:39:03.047Z,46.97
2017-11-04T17:41:30.316Z,49.70
2017-11-04T17:43:57.588Z,50.20
2017-11-04T17:46:24.895Z,51.30
2017-11-04T17:48:52.199Z,47.70
2017-11-04T17:51:19.472Z,51.33
2017-11-04T17:53:46.775Z,45.37
2017-11-04T17:56:14.062Z,46.00
2017-11-04T17:58:41.355Z,47.33
2017-11-04T18:01:08.652Z,50.90
2017-11-04T18:03:35.940Z,47.03
2017-11-04T18:06:03.244Z,45.63
2017-11-04T18:08:30.535Z,44.87
2017-11-04T18:10:57.841Z,42.60
2017-11-04T18:13:25.142Z,44.07
2017-11-04T18:15:52.424Z,42.20
2017-11-04T18:18:19.732Z,44.27
2017-11-04T18:20:47.008Z,42.47
2017-11-04T18:23:14.287Z,41.83
2017-11-04T18:25:41.586Z,43.37
2017-11-04T18:28:08.856Z,41.63
2017-11-04T18:30:36.168Z,41.03
2017-11-04T18:33:03.468Z,40.33
2017-11-04T18:35:30.879Z,38.70
2017-11-04T18:37:58.146Z,36.53
2017-11-04T18:40:25.420Z,37.73
2017-11-04T18:42:52.732Z,35.43
2017-11-04T18:45:20.012Z,37.70
2017-11-04T18:47:47.380Z,36.20
2017-11-04T18:50:14.644Z,37.33
2017-11-04T18:52:41.943Z,38.30
2017-11-04T18:55:09.215Z,37.77
2017-11-04T18:57:36.521Z,38.37
2017-11-04T19:00:03.810Z,36.53
2017-11-04T19:02:31.096Z,35.60
2017-11-04T19:04:58.379Z,36.60
2017-11-04T19:07:25.675Z,35.27
2017-11-04T19:09:52.943Z,35.40
2017-11-04T19:12:20.246Z,33.83
2017-11-04T19:14:47.517Z,33.40
2017-11-04T19:17:14.812Z,34.03
2017-11-04T19:19:42.089Z,33.17
2017-11-04T19:22:09.383Z,34.30
2017-11-04T19:24:36.681Z,32.73
2017-11-04T19:27:03.946Z,33.87
2017-11-04T19:29:31.248Z,33.20
2017-11-04T19:31:58.543Z,33.70
2017-11-04T19:34:25.834Z,31.50
2017-11-04T19:36:53.095Z,31.70
2017-11-04T19:39:20.383Z,33.30
2017-11-04T19:41:47.664Z,32.40
2017-11-04T19:44:14.950Z,33.33
2017-11-04T19:46:42.226Z,32.07
2017-11-04T19:49:09.515Z,32.33
2017-11-04T19:51:36.788Z,31.43
2017-11-04T19:54:04.093Z,30.97
2017-11-04T19:56:31.363Z,30.90
2017-11-04T19:58:58.655Z,30.17
2017-11-04T20:01:25.932Z,30.70
2017-11-04T20:03:53.288Z,31.40
2017-11-04T20:06:20.557Z,30.90
2017-11-04T20:08:47.844Z,30.60
2017-11-04T20:11:15.130Z,30.63
2017-11-04T20:13:42.398Z,28.20
2017-11-04T20:16:09.699Z,27.07
2017-11-04T20:18:37.116Z,28.67
2017-11-04T20:21:04.410Z,27.87
2017-11-04T20:23:31.680Z,27.80
2017-11-04T20:25:58.971Z,27.93
2017-11-04T20:28:26.246Z,24.77
2017-11-04T20:30:53.538Z,25.73
2017-11-04T20:33:20.820Z,23.40
2017-11-04T20:35:48.120Z,24.23
2017-11-04T20:38:15.389Z,24.67
2017-11-04T20:40:42.677Z,22.90
2017-11-04T20:43:09.948Z,22.47
2017-11-04T20:45:37.251Z,22.67
2017-11-04T20:48:04.517Z,20.53
2017-11-04T20:50:31.811Z,21.60
2017-11-04T20:52:59.111Z,20.43
2017-11-04T20:55:26.395Z,22.80
2017-11-04T20:57:53.668Z,21.67
2017-11-04T21:00:20.995Z,21.37
2017-11-04T21:02:48.263Z,21.90
2017-11-04T21:05:15.647Z,21.60
2017-11-04T21:07:42.943Z,21.53
2017-11-04T21:10:10.244Z,24.23
2017-11-04T21:12:37.548Z,22.87
2017-11-04T21:15:04.835Z,23.23
2017-11-04T21:17:32.291Z,22.20
2017-11-04T21:19:59.559Z,25.13
2017-11-04T21:22:26.854Z,23.80
2017-11-04T21:24:54.127Z,23.80
2017-11-04T21:27:21.427Z,23.20
2017-11-04T21:29:48.697Z,22.03
2017-11-04T21:32:16.004Z,22.57
2017-11-04T21:34:43.270Z,19.63
2017-11-04T21:37:10.588Z,22.73
2017-11-04T21:39:37.868Z,21.40
2017-11-04T21:42:05.140Z,19.60
2017-11-04T21:44:32.450Z,22.13
2017-11-04T21:46:59.724Z,19.37
2017-11-04T21:49:27.023Z,20.33
2017-11-04T21:51:54.331Z,21.07
2017-11-04T21:54:21.603Z,19.80
2017-11-04T21:56:48.915Z,19.87
2017-11-04T21:59:16.202Z,19.23
2017-11-04T22:01:43.468Z,21.33
2017-11-04T22:04:10.767Z,26.97
2017-11-04T22:06:38.045Z,20.07
2017-11-04T22:09:05.346Z,22.00
2017-11-04T22:11:32.613Z,21.20
2017-11-04T22:13:59.923Z,24.30
2017-11-04T22:16:27.191Z,22.43
2017-11-04T22:18:54.502Z,21.67
2017-11-04T22:21:21.783Z,21.30
2017-11-04T22:23:49.055Z,23.00
2017-11-04T22:26:16.367Z,21.40
2017-11-04T22:28:43.651Z,21.50
2017-11-04T22:31:10.966Z,21.90
2017-11-04T22:33:38.264Z,20.00
2017-11-04T22:36:05.585Z,22.37
2017-11-04T22:38:32.859Z,23.70
2017-11-04T22:41:00.127Z,20.10
2017-11-04T22:43:27.422Z,24.77
2017-11-04T22:45:54.695Z,25.53
2017-11-04T22:48:22.018Z,23.43
2017-11-04T22:50:49.292Z,22.30
2017-11-04T22:53:16.571Z,24.90
2017-11-04T22:55:43.870Z,23.33
2017-11-04T22:58:11.141Z,22.97
2017-11-04T23:00:38.439Z,20.97
2017-11-04T23:03:05.715Z,25.03
2017-11-04T23:05:33.020Z,24.10
2017-11-04T23:08:00.312Z,27.80
2017-11-04T23:10:27.579Z,25.60
2017-11-04T23:12:54.888Z,26.17
2017-11-04T23:15:22.163Z,29.33
2017-11-04T23:17:49.452Z,29.37
2017-11-04T23:20:16.750Z,24.93
2017-11-04T23:22:44.020Z,29.33
2017-11-04T23:25:11.324Z,27.10
2017-11-04T23:27:38.600Z,28.90
2017-11-04T23:30:05.902Z,31.23
2017-11-04T23:32:33.167Z,32.63
2017-11-04T23:35:00.475Z,29.90
2017-11-04T23:37:27.755Z,32.90
2017-11-04T23:39:55.030Z,34.43
2017-11-04T23:42:22.326Z,34.57
2017-11-04T23:44:49.649Z,33.77
2017-11-04T23:47:16.930Z,31.97
2017-11-04T23:49:44.195Z,39.07
2017-11-04T23:52:11.498Z,35.90
2017-11-04T23:54:38.770Z,33.67
2017-11-04T23:57:06.084Z,34.17
2017-11-04T23:59:33.362Z,36.83
